Accueil
METAR-TAF:

METAR-TAF

Aéroports :

Woensdrecht, Pays-Bas

latitude: 51-27N, longitude: 004-20E, altitude: 20 m

Observation

Le bulletin a été fait il y a 31 minutes, à 00:25 UTC
Vent 10 kt de sud-ouest, variant entre sud/sud-ouest et ouest
Température 9°C
Humidité 81%
Pression 1016 hPa
Visibilité 10 km ou plus
Ciel couvert à une hauteur de 23000 ft

METAR: EHWO 240025Z AUTO 23010KT 200V260 9999 OVC230 09/06 Q1016 BLU

Heure: 02:56 (00:56 UTC)

Prévision

Le bulletin a été fait il y a 16 heures et 38 minutes, à 08:18 UTC
Prévision valable du 23 à 09 UTC au 23 à 21 UTC
Vent 12 kt de ouest/sud-ouest
Visibilité 10 km ou plus
Nuages épars à une hauteur de 1500 ft
Evoluant progressivement
du 23 à 09 UTC au 23 à 11 UTC
Vent 12 kt de ouest avec des rafales jusqu'à 22 kt
Nuages épars à une hauteur de 2200 ft

TAF: EHWO 230818Z 2309/2321 25012KT 9999 SCT015 BECMG 2309/2311 27012G22KT SCT022

Observations et prévisions météorologiques de plus de 4000 aéroports (messages METAR et TAF).

Les stations disponibles sont représentées par des disques jaunes et rouges sur la carte.

Passer la souris dessus pour voir le nom de la station.

Cliquer dessus pour voir les observations et prévisions météorologiques.

Pour changer de carte: cliquez sur les boutons verts avec une croix noire pour zoomer, sur le bouton vert avec un tiret pour effectuer un zoom arrière, ou sur les flèches vertes pour les cartes adjacentes.


METAR-TAF: